AMX6416 MGGT-MHTG
Flight info
| Callsign | AMX6416 |
|---|---|
| Flight time | 0h 40m |
| Altitude | 27000 |
| Route | LAGOX2A LAGOX UA552 NAGEL DCT VITAN VITAN1A |
| Aircraft | MD82/M-SDFGIRWY/C |
Departure
| Time | 2026-05-04 01:10 |
|---|---|
| Airport | La Aurora International Airport (MGGT) |
Arrival
| Time | 2026-05-04 01:50 |
|---|---|
| Airport | Toncontín Airport (MHTG) |
| Time | Latitude | Longitude | Altitude | Speed | Heading |
|---|---|---|---|---|---|
| 2026-05-04 00:28 | 14.58824 | -90.52918 | 4949 ft | 0 kts | 287° |
| 2026-05-04 00:56 | 14.58819 | -90.52904 | 4949 ft | 4 kts | 303° |
| 2026-05-04 00:56 | 14.58802 | -90.52890 | 4949 ft | 4 kts | 341° |
| 2026-05-04 00:56 | 14.58790 | -90.52884 | 4949 ft | 4 kts | 307° |
| 2026-05-04 00:57 | 14.58775 | -90.52858 | 4949 ft | 4 kts | 294° |
| 2026-05-04 00:57 | 14.58770 | -90.52842 | 4949 ft | 4 kts | 269° |
| 2026-05-04 00:57 | 14.58777 | -90.52822 | 4949 ft | 4 kts | 228° |
| 2026-05-04 00:57 | 14.58795 | -90.52815 | 4949 ft | 4 kts | 193° |
| 2026-05-04 00:58 | 14.58817 | -90.52808 | 4949 ft | 4 kts | 198° |
| 2026-05-04 00:58 | 14.58840 | -90.52800 | 4949 ft | 1 kts | 197° |
| 2026-05-04 00:58 | 14.58841 | -90.52800 | 4949 ft | 4 kts | 197° |
| 2026-05-04 01:02 | 14.58839 | -90.52800 | 4947 ft | 0 kts | 197° |
| 2026-05-04 01:02 | 14.58835 | -90.52802 | 4949 ft | 3 kts | 197° |
| 2026-05-04 01:03 | 14.58787 | -90.52817 | 4976 ft | 11 kts | 194° |
| 2026-05-04 01:03 | 14.58700 | -90.52784 | 4977 ft | 16 kts | 125° |
| 2026-05-04 01:03 | 14.58655 | -90.52717 | 4971 ft | 11 kts | 172° |
| 2026-05-04 01:03 | 14.58565 | -90.52744 | 4971 ft | 18 kts | 198° |
| 2026-05-04 01:04 | 14.58426 | -90.52785 | 4967 ft | 23 kts | 196° |
| 2026-05-04 01:04 | 14.58251 | -90.52837 | 4965 ft | 29 kts | 196° |
| 2026-05-04 01:04 | 14.58041 | -90.52906 | 4959 ft | 34 kts | 199° |
| 2026-05-04 01:04 | 14.57817 | -90.52984 | 4943 ft | 38 kts | 198° |
| 2026-05-04 01:05 | 14.57715 | -90.53018 | 4943 ft | 38 kts | 197° |
| 2026-05-04 01:05 | 14.57487 | -90.53090 | 4927 ft | 24 kts | 198° |
| 2026-05-04 01:05 | 14.57327 | -90.53143 | 4932 ft | 24 kts | 197° |
| 2026-05-04 01:05 | 14.57197 | -90.53184 | 4932 ft | 17 kts | 198° |
| 2026-05-04 01:06 | 14.57106 | -90.53209 | 4929 ft | 9 kts | 179° |
| 2026-05-04 01:06 | 14.57065 | -90.53180 | 4927 ft | 8 kts | 121° |
| 2026-05-04 01:06 | 14.57063 | -90.53159 | 4928 ft | 1 kts | 68° |
| 2026-05-04 01:06 | 14.57069 | -90.53153 | 4928 ft | 3 kts | 41° |
| 2026-05-04 01:07 | 14.57092 | -90.53144 | 4928 ft | 0 kts | 17° |
| 2026-05-04 01:08 | 14.57093 | -90.53143 | 4928 ft | 0 kts | 17° |
| 2026-05-04 01:08 | 14.57094 | -90.53143 | 4928 ft | 0 kts | 17° |
| 2026-05-04 01:09 | 14.57097 | -90.53142 | 4928 ft | 6 kts | 17° |
| 2026-05-04 01:09 | 14.57297 | -90.53079 | 4927 ft | 57 kts | 17° |
| 2026-05-04 01:10 | 14.57854 | -90.52900 | 4944 ft | 109 kts | 17° |
| 2026-05-04 01:10 | 14.58721 | -90.52624 | 4973 ft | 150 kts | 19° |
| 2026-05-04 01:10 | 14.59832 | -90.52271 | 5060 ft | 180 kts | 14° |
| 2026-05-04 01:10 | 14.61051 | -90.51929 | 5572 ft | 182 kts | 18° |
| 2026-05-04 01:11 | 14.62254 | -90.51580 | 6220 ft | 180 kts | 11° |
| 2026-05-04 01:11 | 14.63470 | -90.51377 | 6910 ft | 169 kts | 11° |
| 2026-05-04 01:11 | 14.64591 | -90.50974 | 7178 ft | 182 kts | 36° |
| 2026-05-04 01:11 | 14.65505 | -90.50039 | 7436 ft | 190 kts | 54° |
| 2026-05-04 01:12 | 14.66002 | -90.48667 | 7304 ft | 221 kts | 80° |
| 2026-05-04 01:12 | 14.66175 | -90.47033 | 7460 ft | 241 kts | 83° |
| 2026-05-04 01:12 | 14.66292 | -90.45229 | 7523 ft | 266 kts | 85° |
| 2026-05-04 01:12 | 14.66338 | -90.43255 | 7774 ft | 281 kts | 88° |
| 2026-05-04 01:13 | 14.66323 | -90.41276 | 8318 ft | 282 kts | 89° |
| 2026-05-04 01:13 | 14.66263 | -90.39240 | 8912 ft | 282 kts | 90° |
| 2026-05-04 01:13 | 14.66007 | -90.37229 | 9484 ft | 285 kts | 107° |
| 2026-05-04 01:13 | 14.64704 | -90.35698 | 9622 ft | 310 kts | 159° |
| 2026-05-04 01:14 | 14.62871 | -90.34744 | 10580 ft | 280 kts | 130° |
| 2026-05-04 01:14 | 14.62014 | -90.32985 | 10856 ft | 284 kts | 94° |
| 2026-05-04 01:14 | 14.61713 | -90.30930 | 11071 ft | 299 kts | 107° |
| 2026-05-04 01:14 | 14.60555 | -90.29087 | 11177 ft | 320 kts | 137° |
| 2026-05-04 01:15 | 14.58594 | -90.27884 | 11309 ft | 337 kts | 154° |
| 2026-05-04 01:15 | 14.56386 | -90.26961 | 11504 ft | 350 kts | 156° |
| 2026-05-04 01:15 | 14.54219 | -90.25756 | 11636 ft | 359 kts | 137° |
| 2026-05-04 01:15 | 14.52641 | -90.23792 | 11979 ft | 357 kts | 115° |
| 2026-05-04 01:16 | 14.51858 | -90.21385 | 12448 ft | 354 kts | 99° |
| 2026-05-04 01:16 | 14.51451 | -90.18870 | 12858 ft | 357 kts | 97° |
| 2026-05-04 01:16 | 14.51094 | -90.16324 | 13269 ft | 359 kts | 96° |
| 2026-05-04 01:16 | 14.50755 | -90.13785 | 13776 ft | 357 kts | 96° |
| 2026-05-04 01:17 | 14.50419 | -90.11221 | 14065 ft | 363 kts | 96° |
| 2026-05-04 01:17 | 14.50062 | -90.08634 | 14492 ft | 364 kts | 97° |
| 2026-05-04 01:17 | 14.49683 | -90.06046 | 14852 ft | 367 kts | 97° |
| 2026-05-04 01:17 | 14.49290 | -90.03442 | 15219 ft | 368 kts | 97° |
| 2026-05-04 01:18 | 14.48883 | -90.00820 | 15578 ft | 371 kts | 98° |
| 2026-05-04 01:18 | 14.48462 | -89.98182 | 15917 ft | 374 kts | 98° |
| 2026-05-04 01:18 | 14.48041 | -89.95566 | 16278 ft | 375 kts | 98° |
| 2026-05-04 01:18 | 14.47607 | -89.92869 | 16680 ft | 377 kts | 98° |
| 2026-05-04 01:19 | 14.47181 | -89.90225 | 17020 ft | 380 kts | 98° |
| 2026-05-04 01:19 | 14.46748 | -89.87527 | 17378 ft | 382 kts | 98° |
| 2026-05-04 01:19 | 14.46315 | -89.84813 | 17730 ft | 384 kts | 98° |
| 2026-05-04 01:19 | 14.45880 | -89.82084 | 18115 ft | 386 kts | 97° |
| 2026-05-04 01:20 | 14.45443 | -89.79346 | 18470 ft | 388 kts | 97° |
| 2026-05-04 01:20 | 14.45005 | -89.76595 | 18725 ft | 391 kts | 98° |
| 2026-05-04 01:20 | 14.44562 | -89.73814 | 19010 ft | 394 kts | 98° |
| 2026-05-04 01:20 | 14.44118 | -89.71026 | 19320 ft | 395 kts | 98° |
| 2026-05-04 01:21 | 14.43670 | -89.68217 | 19601 ft | 397 kts | 97° |
| 2026-05-04 01:21 | 14.43219 | -89.65406 | 19900 ft | 399 kts | 98° |
| 2026-05-04 01:21 | 14.42761 | -89.62571 | 20168 ft | 402 kts | 98° |
| 2026-05-04 01:21 | 14.42298 | -89.59721 | 20462 ft | 404 kts | 97° |
| 2026-05-04 01:22 | 14.41835 | -89.56857 | 20734 ft | 406 kts | 98° |
| 2026-05-04 01:22 | 14.41370 | -89.53973 | 20977 ft | 409 kts | 98° |
| 2026-05-04 01:22 | 14.40909 | -89.51113 | 21265 ft | 410 kts | 98° |
| 2026-05-04 01:22 | 14.40438 | -89.48203 | 21574 ft | 412 kts | 98° |
| 2026-05-04 01:23 | 14.39967 | -89.45281 | 21821 ft | 415 kts | 98° |
| 2026-05-04 01:23 | 14.39491 | -89.42331 | 22063 ft | 417 kts | 98° |
| 2026-05-04 01:23 | 14.39012 | -89.39373 | 22359 ft | 418 kts | 97° |
| 2026-05-04 01:23 | 14.38535 | -89.36404 | 22574 ft | 421 kts | 98° |
| 2026-05-04 01:24 | 14.38055 | -89.33419 | 22775 ft | 424 kts | 97° |
| 2026-05-04 01:24 | 14.37566 | -89.30415 | 23038 ft | 425 kts | 98° |
| 2026-05-04 01:24 | 14.37073 | -89.27402 | 23283 ft | 427 kts | 98° |
| 2026-05-04 01:24 | 14.36587 | -89.24364 | 23526 ft | 430 kts | 98° |
| 2026-05-04 01:25 | 14.36102 | -89.21325 | 23837 ft | 429 kts | 98° |
| 2026-05-04 01:25 | 14.35612 | -89.18299 | 24117 ft | 428 kts | 98° |
| 2026-05-04 01:25 | 14.35122 | -89.15264 | 24258 ft | 431 kts | 98° |
| 2026-05-04 01:25 | 14.34623 | -89.12247 | 24430 ft | 433 kts | 98° |
| 2026-05-04 01:26 | 14.34112 | -89.09179 | 24652 ft | 434 kts | 97° |
| 2026-05-04 01:26 | 14.33605 | -89.06105 | 24826 ft | 436 kts | 99° |
| 2026-05-04 01:26 | 14.33098 | -89.03011 | 25015 ft | 438 kts | 97° |
| 2026-05-04 01:26 | 14.32589 | -88.99918 | 25244 ft | 439 kts | 98° |
| 2026-05-04 01:27 | 14.32086 | -88.96802 | 25391 ft | 441 kts | 98° |
| 2026-05-04 01:27 | 14.31576 | -88.93670 | 25566 ft | 443 kts | 98° |
| 2026-05-04 01:27 | 14.31054 | -88.90540 | 25768 ft | 444 kts | 98° |
| 2026-05-04 01:27 | 14.30537 | -88.87390 | 25944 ft | 446 kts | 98° |
| 2026-05-04 01:28 | 14.30022 | -88.84223 | 26095 ft | 448 kts | 98° |
| 2026-05-04 01:28 | 14.29502 | -88.81054 | 26283 ft | 449 kts | 98° |
| 2026-05-04 01:28 | 14.28979 | -88.77867 | 26452 ft | 451 kts | 98° |
| 2026-05-04 01:28 | 14.28464 | -88.74743 | 26559 ft | 453 kts | 98° |
| 2026-05-04 01:29 | 14.27909 | -88.71484 | 26706 ft | 450 kts | 99° |
| 2026-05-04 01:29 | 14.27376 | -88.68325 | 26764 ft | 444 kts | 98° |
| 2026-05-04 01:29 | 14.26868 | -88.65201 | 26791 ft | 440 kts | 98° |
| 2026-05-04 01:29 | 14.26362 | -88.62100 | 26812 ft | 438 kts | 99° |
| 2026-05-04 01:30 | 14.25482 | -88.59100 | 26827 ft | 439 kts | 112° |
| 2026-05-04 01:30 | 14.24215 | -88.56232 | 26828 ft | 441 kts | 115° |
| 2026-05-04 01:30 | 14.22864 | -88.53396 | 26828 ft | 442 kts | 115° |
| 2026-05-04 01:30 | 14.21508 | -88.50587 | 26827 ft | 443 kts | 115° |
| 2026-05-04 01:31 | 14.20144 | -88.47745 | 26792 ft | 443 kts | 115° |
| 2026-05-04 01:31 | 14.18795 | -88.44889 | 26804 ft | 443 kts | 115° |
| 2026-05-04 01:31 | 14.17462 | -88.42034 | 26801 ft | 442 kts | 115° |
| 2026-05-04 01:31 | 14.16139 | -88.39180 | 26804 ft | 441 kts | 114° |
| 2026-05-04 01:32 | 14.14828 | -88.36330 | 26800 ft | 440 kts | 114° |
| 2026-05-04 01:32 | 14.13522 | -88.33475 | 26800 ft | 440 kts | 114° |
| 2026-05-04 01:32 | 14.12213 | -88.30628 | 26818 ft | 440 kts | 114° |
| 2026-05-04 01:32 | 14.10904 | -88.27773 | 26823 ft | 441 kts | 114° |
| 2026-05-04 01:33 | 14.09601 | -88.24913 | 26821 ft | 441 kts | 114° |
| 2026-05-04 01:33 | 14.08291 | -88.22049 | 26820 ft | 442 kts | 114° |
| 2026-05-04 01:33 | 14.06974 | -88.19191 | 26819 ft | 442 kts | 115° |
| 2026-05-04 01:33 | 14.05648 | -88.16331 | 26809 ft | 442 kts | 115° |
| 2026-05-04 01:34 | 14.04318 | -88.13470 | 26807 ft | 442 kts | 115° |
| 2026-05-04 01:34 | 14.03008 | -88.10647 | 26807 ft | 442 kts | 115° |
| 2026-05-04 01:34 | 14.01683 | -88.07784 | 26806 ft | 442 kts | 115° |
| 2026-05-04 01:34 | 14.00359 | -88.04929 | 26806 ft | 442 kts | 114° |
| 2026-05-04 01:35 | 13.99039 | -88.02077 | 26806 ft | 441 kts | 114° |
| 2026-05-04 01:35 | 13.97719 | -87.99226 | 26813 ft | 441 kts | 114° |
| 2026-05-04 01:35 | 13.96401 | -87.96372 | 26815 ft | 441 kts | 114° |
| 2026-05-04 01:35 | 13.95082 | -87.93519 | 26816 ft | 441 kts | 114° |
| 2026-05-04 01:36 | 13.93759 | -87.90650 | 26535 ft | 448 kts | 114° |
| 2026-05-04 01:36 | 13.92416 | -87.87772 | 26069 ft | 443 kts | 115° |
| 2026-05-04 01:36 | 13.91092 | -87.84932 | 25521 ft | 436 kts | 114° |
| 2026-05-04 01:36 | 13.89797 | -87.82130 | 24959 ft | 431 kts | 114° |
| 2026-05-04 01:37 | 13.88520 | -87.79353 | 24365 ft | 427 kts | 114° |
| 2026-05-04 01:37 | 13.87379 | -87.76552 | 23739 ft | 422 kts | 103° |
| 2026-05-04 01:37 | 13.87052 | -87.73584 | 23079 ft | 415 kts | 85° |
| 2026-05-04 01:37 | 13.87574 | -87.70678 | 22299 ft | 412 kts | 73° |
| 2026-05-04 01:38 | 13.88419 | -87.67869 | 21547 ft | 410 kts | 71° |
| 2026-05-04 01:38 | 13.89342 | -87.65094 | 20838 ft | 408 kts | 70° |
| 2026-05-04 01:38 | 13.90278 | -87.62342 | 20140 ft | 406 kts | 70° |
| 2026-05-04 01:38 | 13.91193 | -87.59646 | 19456 ft | 401 kts | 70° |
| 2026-05-04 01:39 | 13.92106 | -87.56954 | 18803 ft | 397 kts | 70° |
| 2026-05-04 01:39 | 13.92985 | -87.54281 | 18132 ft | 392 kts | 71° |
| 2026-05-04 01:39 | 13.93825 | -87.51655 | 17429 ft | 389 kts | 71° |
| 2026-05-04 01:39 | 13.94659 | -87.49023 | 16777 ft | 385 kts | 71° |
| 2026-05-04 01:40 | 13.95484 | -87.46414 | 16185 ft | 379 kts | 71° |
| 2026-05-04 01:40 | 13.96284 | -87.43856 | 15599 ft | 372 kts | 71° |
| 2026-05-04 01:40 | 13.97069 | -87.41339 | 14987 ft | 366 kts | 71° |
| 2026-05-04 01:40 | 13.97850 | -87.38872 | 14400 ft | 361 kts | 71° |
| 2026-05-04 01:41 | 13.98624 | -87.36434 | 13770 ft | 356 kts | 71° |
| 2026-05-04 01:41 | 13.99393 | -87.34018 | 13106 ft | 352 kts | 71° |
| 2026-05-04 01:41 | 14.00151 | -87.31637 | 12478 ft | 347 kts | 72° |
| 2026-05-04 01:41 | 14.00893 | -87.29290 | 11892 ft | 342 kts | 72° |
| 2026-05-04 01:42 | 14.01614 | -87.26983 | 11322 ft | 336 kts | 72° |
| 2026-05-04 01:42 | 14.02340 | -87.24708 | 10772 ft | 331 kts | 72° |
| 2026-05-04 01:42 | 14.03060 | -87.22490 | 10442 ft | 320 kts | 69° |
| 2026-05-04 01:42 | 14.04213 | -87.20608 | 10281 ft | 306 kts | 44° |
| 2026-05-04 01:43 | 14.05989 | -87.19513 | 10123 ft | 295 kts | 17° |
| 2026-05-04 01:43 | 14.07991 | -87.19378 | 9949 ft | 288 kts | 351° |
| 2026-05-04 01:43 | 14.09821 | -87.20102 | 9868 ft | 277 kts | 336° |
| 2026-05-04 01:43 | 14.11532 | -87.20979 | 9783 ft | 274 kts | 337° |
| 2026-05-04 01:44 | 14.13293 | -87.21816 | 9734 ft | 281 kts | 339° |
| 2026-05-04 01:44 | 14.15069 | -87.22644 | 9655 ft | 282 kts | 338° |
| 2026-05-04 01:44 | 14.16253 | -87.23205 | 9601 ft | 284 kts | 338° |
| 2026-05-04 01:44 | 14.18069 | -87.24060 | 9211 ft | 292 kts | 338° |
| 2026-05-04 01:45 | 14.19850 | -87.25114 | 8659 ft | 295 kts | 324° |
| 2026-05-04 01:45 | 14.21197 | -87.26641 | 8563 ft | 284 kts | 298° |
| 2026-05-04 01:45 | 14.20484 | -87.30941 | 8391 ft | 289 kts | 225° |
| 2026-05-04 01:46 | 14.19438 | -87.31857 | 8090 ft | 296 kts | 208° |
| 2026-05-04 01:46 | 14.17619 | -87.32828 | 7699 ft | 293 kts | 202° |
| 2026-05-04 01:46 | 14.15765 | -87.33695 | 7237 ft | 292 kts | 200° |
| 2026-05-04 01:46 | 14.13811 | -87.34044 | 6868 ft | 282 kts | 169° |
| 2026-05-04 01:47 | 14.11960 | -87.33655 | 6803 ft | 265 kts | 163° |
| 2026-05-04 01:47 | 14.10230 | -87.33194 | 6597 ft | 245 kts | 158° |
| 2026-05-04 01:47 | 14.08871 | -87.32355 | 6393 ft | 217 kts | 131° |
| 2026-05-04 01:47 | 14.07889 | -87.31265 | 6192 ft | 200 kts | 124° |
| 2026-05-04 01:48 | 14.07044 | -87.30182 | 5941 ft | 189 kts | 124° |
| 2026-05-04 01:48 | 14.06260 | -87.29131 | 5674 ft | 182 kts | 123° |
| 2026-05-04 01:48 | 14.05502 | -87.28057 | 5199 ft | 186 kts | 122° |
| 2026-05-04 01:48 | 14.04816 | -87.27050 | 5173 ft | 157 kts | 121° |
| 2026-05-04 01:49 | 14.04240 | -87.26146 | 4962 ft | 150 kts | 115° |
| 2026-05-04 01:49 | 14.03779 | -87.25177 | 4651 ft | 150 kts | 104° |
| 2026-05-04 01:49 | 14.03713 | -87.24118 | 4498 ft | 144 kts | 79° |
| 2026-05-04 01:49 | 14.03962 | -87.23093 | 4103 ft | 159 kts | 63° |
| 2026-05-04 01:50 | 14.04620 | -87.22235 | 3741 ft | 151 kts | 24° |
| 2026-05-04 01:50 | 14.05631 | -87.21874 | 3315 ft | 156 kts | 15° |
| 2026-05-04 01:50 | 14.06541 | -87.21560 | 3262 ft | 117 kts | 19° |
| 2026-05-04 01:50 | 14.06880 | -87.21460 | 3255 ft | 11 kts | 334° |
| 2026-05-04 01:51 | 14.06894 | -87.21484 | 3256 ft | 1 kts | 265° |
| 2026-05-04 01:51 | 14.06875 | -87.21524 | 3256 ft | 10 kts | 230° |
| 2026-05-04 01:51 | 14.06802 | -87.21558 | 3257 ft | 13 kts | 199° |
| 2026-05-04 01:51 | 14.06727 | -87.21584 | 3259 ft | 10 kts | 199° |
| 2026-05-04 01:52 | 14.06671 | -87.21604 | 3260 ft | 7 kts | 199° |
| 2026-05-04 01:52 | 14.06632 | -87.21618 | 3261 ft | 5 kts | 199° |
| 2026-05-04 01:52 | 14.06572 | -87.21639 | 3262 ft | 13 kts | 199° |
| 2026-05-04 01:52 | 14.06460 | -87.21678 | 3264 ft | 21 kts | 199° |
| 2026-05-04 01:53 | 14.06311 | -87.21731 | 3269 ft | 24 kts | 199° |
| 2026-05-04 01:53 | 14.06156 | -87.21785 | 3267 ft | 20 kts | 198° |
| 2026-05-04 01:53 | 14.06070 | -87.21814 | 3271 ft | 6 kts | 207° |
| 2026-05-04 01:53 | 14.06066 | -87.21816 | 3273 ft | 0 kts | 213° |
| 2026-05-04 01:54 | 14.06064 | -87.21819 | 3271 ft | 2 kts | 224° |
| 2026-05-04 01:54 | 14.06056 | -87.21839 | 3273 ft | 4 kts | 265° |
| 2026-05-04 01:54 | 14.06058 | -87.21861 | 3274 ft | 2 kts | 281° |
| 2026-05-04 01:54 | 14.06063 | -87.21880 | 3274 ft | 0 kts | 285° |